sensor_id;sensor_type;location;lat;lon;timestamp;noise_LAeq;noise_LA_min;noise_LA_max;noise_LA01;noise_LA95
73663;Laerm;61956;52.540;13.382;2023-05-15T00:01:10;64.65;58.13;67.11;;
73663;Laerm;61956;52.540;13.382;2023-05-15T00:03:39;64.49;59.28;67.46;;
73663;Laerm;61956;52.540;13.382;2023-05-15T00:06:11;64.46;59.96;67.15;;
73663;Laerm;61956;52.540;13.382;2023-05-15T00:08:40;64.61;59.04;67.59;;
73663;Laerm;61956;52.540;13.382;2023-05-15T00:11:10;64.68;58.96;67.72;;
73663;Laerm;61956;52.540;13.382;2023-05-15T00:13:39;64.52;58.84;67.23;;
73663;Laerm;61956;52.540;13.382;2023-05-15T00:16:08;64.74;59.05;67.73;;
73663;Laerm;61956;52.540;13.382;2023-05-15T00:18:37;64.67;59.10;67.29;;
73663;Laerm;61956;52.540;13.382;2023-05-15T00:21:07;64.81;59.61;67.51;;
73663;Laerm;61956;52.540;13.382;2023-05-15T00:23:38;64.76;59.41;67.43;;
73663;Laerm;61956;52.540;13.382;2023-05-15T00:26:08;64.81;59.27;67.54;;
73663;Laerm;61956;52.540;13.382;2023-05-15T00:28:40;64.82;59.32;67.57;;
73663;Laerm;61956;52.540;13.382;2023-05-15T00:31:10;64.84;59.49;67.59;;
73663;Laerm;61956;52.540;13.382;2023-05-15T00:33:39;64.87;59.92;67.68;;
73663;Laerm;61956;52.540;13.382;2023-05-15T00:36:09;64.82;59.61;72.70;;
73663;Laerm;61956;52.540;13.382;2023-05-15T00:38:41;64.76;59.80;67.23;;
73663;Laerm;61956;52.540;13.382;2023-05-15T00:41:11;64.80;59.28;67.65;;
73663;Laerm;61956;52.540;13.382;2023-05-15T00:43:42;64.77;60.08;67.94;;
73663;Laerm;61956;52.540;13.382;2023-05-15T00:48:43;63.75;58.30;67.82;;
73663;Laerm;61956;52.540;13.382;2023-05-15T00:51:12;63.82;57.81;67.55;;
73663;Laerm;61956;52.540;13.382;2023-05-15T00:53:44;63.81;57.94;67.59;;
73663;Laerm;61956;52.540;13.382;2023-05-15T00:56:16;63.81;58.09;68.09;;
73663;Laerm;61956;52.540;13.382;2023-05-15T00:58:49;63.79;57.98;67.71;;
73663;Laerm;61956;52.540;13.382;2023-05-15T01:01:18;63.91;58.07;67.76;;
73663;Laerm;61956;52.540;13.382;2023-05-15T01:03:48;63.80;57.52;67.76;;
73663;Laerm;61956;52.540;13.382;2023-05-15T01:06:17;63.81;57.96;67.78;;
73663;Laerm;61956;52.540;13.382;2023-05-15T01:08:50;63.83;57.82;67.88;;
73663;Laerm;61956;52.540;13.382;2023-05-15T01:11:26;63.82;58.12;67.82;;
73663;Laerm;61956;52.540;13.382;2023-05-15T01:14:03;63.85;57.97;67.62;;
73663;Laerm;61956;52.540;13.382;2023-05-15T01:16:34;63.91;58.07;67.96;;
73663;Laerm;61956;52.540;13.382;2023-05-15T01:19:04;63.84;58.00;67.76;;
73663;Laerm;61956;52.540;13.382;2023-05-15T01:25:19;63.68;58.04;67.77;;
73663;Laerm;61956;52.540;13.382;2023-05-15T01:28:04;63.69;57.83;67.91;;
73663;Laerm;61956;52.540;13.382;2023-05-15T01:30:41;63.64;57.64;68.13;;
73663;Laerm;61956;52.540;13.382;2023-05-15T01:33:21;63.61;57.96;68.08;;
73663;Laerm;61956;52.540;13.382;2023-05-15T01:36:02;63.59;57.82;68.04;;
73663;Laerm;61956;52.540;13.382;2023-05-15T01:38:40;63.56;57.81;68.10;;
73663;Laerm;61956;52.540;13.382;2023-05-15T01:41:19;63.58;57.84;67.79;;
73663;Laerm;61956;52.540;13.382;2023-05-15T01:43:59;63.56;57.96;67.77;;
73663;Laerm;61956;52.540;13.382;2023-05-15T01:46:30;63.59;58.03;68.26;;
73663;Laerm;61956;52.540;13.382;2023-05-15T01:49:03;63.42;57.64;67.84;;
73663;Laerm;61956;52.540;13.382;2023-05-15T01:51:33;63.52;57.71;67.93;;
73663;Laerm;61956;52.540;13.382;2023-05-15T01:54:06;63.52;57.92;68.02;;
73663;Laerm;61956;52.540;13.382;2023-05-15T01:56:37;63.51;57.86;68.05;;
73663;Laerm;61956;52.540;13.382;2023-05-15T01:59:13;63.43;57.82;67.96;;
73663;Laerm;61956;52.540;13.382;2023-05-15T02:01:45;63.42;57.68;67.93;;
73663;Laerm;61956;52.540;13.382;2023-05-15T02:04:15;63.61;57.64;68.24;;
73663;Laerm;61956;52.540;13.382;2023-05-15T02:06:46;63.61;57.90;67.91;;
73663;Laerm;61956;52.540;13.382;2023-05-15T02:09:18;63.64;57.56;68.14;;
73663;Laerm;61956;52.540;13.382;2023-05-15T02:11:49;63.64;58.00;67.81;;
73663;Laerm;61956;52.540;13.382;2023-05-15T02:14:23;63.57;57.73;67.71;;
73663;Laerm;61956;52.540;13.382;2023-05-15T02:16:53;63.59;58.13;67.94;;
73663;Laerm;61956;52.540;13.382;2023-05-15T02:19:22;63.55;57.77;67.75;;
73663;Laerm;61956;52.540;13.382;2023-05-15T02:21:51;63.53;57.79;68.18;;
73663;Laerm;61956;52.540;13.382;2023-05-15T02:24:21;63.48;58.32;67.40;;
73663;Laerm;61956;52.540;13.382;2023-05-15T02:27:01;63.43;57.57;68.00;;
73663;Laerm;61956;52.540;13.382;2023-05-15T02:30:02;63.47;58.06;67.72;;
73663;Laerm;61956;52.540;13.382;2023-05-15T02:32:46;63.41;57.85;67.99;;
73663;Laerm;61956;52.540;13.382;2023-05-15T02:35:28;63.51;57.73;67.62;;
73663;Laerm;61956;52.540;13.382;2023-05-15T02:38:05;63.48;57.78;67.43;;
73663;Laerm;61956;52.540;13.382;2023-05-15T02:40:37;63.51;57.96;67.70;;
73663;Laerm;61956;52.540;13.382;2023-05-15T02:43:12;63.34;57.98;67.66;;
73663;Laerm;61956;52.540;13.382;2023-05-15T02:45:45;63.40;57.84;67.87;;
73663;Laerm;61956;52.540;13.382;2023-05-15T02:48:17;63.34;57.74;67.55;;
73663;Laerm;61956;52.540;13.382;2023-05-15T02:50:47;63.49;58.18;67.83;;
73663;Laerm;61956;52.540;13.382;2023-05-15T02:53:16;63.55;58.09;67.57;;
73663;Laerm;61956;52.540;13.382;2023-05-15T02:55:45;63.55;58.26;67.60;;
73663;Laerm;61956;52.540;13.382;2023-05-15T02:58:15;63.52;58.03;68.12;;
73663;Laerm;61956;52.540;13.382;2023-05-15T03:00:47;63.56;58.01;67.27;;
73663;Laerm;61956;52.540;13.382;2023-05-15T03:03:16;63.53;57.85;67.44;;
73663;Laerm;61956;52.540;13.382;2023-05-15T03:05:45;63.61;58.39;67.47;;
73663;Laerm;61956;52.540;13.382;2023-05-15T03:08:14;63.56;58.25;67.56;;
73663;Laerm;61956;52.540;13.382;2023-05-15T03:10:44;63.60;58.15;72.28;;
73663;Laerm;61956;52.540;13.382;2023-05-15T03:13:13;63.60;58.06;67.66;;
73663;Laerm;61956;52.540;13.382;2023-05-15T03:15:45;63.56;58.34;67.91;;
73663;Laerm;61956;52.540;13.382;2023-05-15T03:18:15;63.61;58.09;67.36;;
73663;Laerm;61956;52.540;13.382;2023-05-15T03:20:45;63.61;58.17;67.18;;
73663;Laerm;61956;52.540;13.382;2023-05-15T03:23:15;63.63;58.04;67.48;;
73663;Laerm;61956;52.540;13.382;2023-05-15T03:25:44;63.59;58.23;67.48;;
73663;Laerm;61956;52.540;13.382;2023-05-15T03:28:13;63.65;58.38;68.18;;
73663;Laerm;61956;52.540;13.382;2023-05-15T03:30:46;63.65;58.38;68.18;;
73663;Laerm;61956;52.540;13.382;2023-05-15T03:33:15;63.68;58.37;67.96;;
73663;Laerm;61956;52.540;13.382;2023-05-15T03:35:44;63.69;58.43;67.46;;
73663;Laerm;61956;52.540;13.382;2023-05-15T03:38:14;63.58;57.93;67.58;;
73663;Laerm;61956;52.540;13.382;2023-05-15T03:40:43;63.65;57.92;67.69;;
73663;Laerm;61956;52.540;13.382;2023-05-15T03:43:12;63.75;58.08;67.55;;
73663;Laerm;61956;52.540;13.382;2023-05-15T03:48:13;63.79;58.39;67.22;;
73663;Laerm;61956;52.540;13.382;2023-05-15T03:50:45;63.85;58.06;71.88;;
73663;Laerm;61956;52.540;13.382;2023-05-15T03:53:14;63.87;58.04;67.28;;
73663;Laerm;61956;52.540;13.382;2023-05-15T03:55:44;63.70;58.65;67.81;;
73663;Laerm;61956;52.540;13.382;2023-05-15T03:58:14;63.81;58.48;67.70;;
73663;Laerm;61956;52.540;13.382;2023-05-15T04:00:43;63.76;57.87;67.43;;
73663;Laerm;61956;52.540;13.382;2023-05-15T04:03:15;63.83;58.56;67.11;;
73663;Laerm;61956;52.540;13.382;2023-05-15T04:05:44;63.77;58.53;67.56;;
73663;Laerm;61956;52.540;13.382;2023-05-15T04:08:15;63.79;58.39;67.80;;
73663;Laerm;61956;52.540;13.382;2023-05-15T04:10:44;63.80;58.65;67.69;;
73663;Laerm;61956;52.540;13.382;2023-05-15T04:13:13;63.78;58.32;67.34;;
73663;Laerm;61956;52.540;13.382;2023-05-15T04:15:45;63.83;58.24;67.46;;
73663;Laerm;61956;52.540;13.382;2023-05-15T04:18:20;63.74;57.92;67.49;;
73663;Laerm;61956;52.540;13.382;2023-05-15T04:20:49;63.82;58.00;67.70;;
73663;Laerm;61956;52.540;13.382;2023-05-15T04:23:18;63.78;58.65;67.70;;
73663;Laerm;61956;52.540;13.382;2023-05-15T04:25:48;63.76;58.46;67.74;;
73663;Laerm;61956;52.540;13.382;2023-05-15T04:28:18;63.76;58.07;67.73;;
73663;Laerm;61956;52.540;13.382;2023-05-15T04:30:48;63.80;58.08;67.59;;
73663;Laerm;61956;52.540;13.382;2023-05-15T04:33:20;63.85;57.87;67.23;;
73663;Laerm;61956;52.540;13.382;2023-05-15T04:35:49;63.84;58.44;67.13;;
73663;Laerm;61956;52.540;13.382;2023-05-15T04:38:18;63.85;58.67;67.84;;
73663;Laerm;61956;52.540;13.382;2023-05-15T04:40:48;63.87;58.16;67.77;;
73663;Laerm;61956;52.540;13.382;2023-05-15T04:43:17;63.87;58.89;67.21;;
73663;Laerm;61956;52.540;13.382;2023-05-15T04:45:48;63.88;59.12;67.49;;
73663;Laerm;61956;52.540;13.382;2023-05-15T04:48:20;63.88;58.38;67.70;;
73663;Laerm;61956;52.540;13.382;2023-05-15T04:50:49;63.83;58.25;67.20;;
73663;Laerm;61956;52.540;13.382;2023-05-15T04:53:21;63.90;58.67;67.40;;
73663;Laerm;61956;52.540;13.382;2023-05-15T04:55:50;63.89;57.75;68.71;;
73663;Laerm;61956;52.540;13.382;2023-05-15T04:58:20;63.86;58.51;67.40;;
73663;Laerm;61956;52.540;13.382;2023-05-15T05:00:49;63.91;58.33;67.11;;
73663;Laerm;61956;52.540;13.382;2023-05-15T05:03:21;63.91;59.00;67.94;;
73663;Laerm;61956;52.540;13.382;2023-05-15T05:05:50;63.90;58.90;67.48;;
73663;Laerm;61956;52.540;13.382;2023-05-15T05:08:19;63.92;58.50;67.40;;
73663;Laerm;61956;52.540;13.382;2023-05-15T05:10:54;63.87;58.68;67.21;;
73663;Laerm;61956;52.540;13.382;2023-05-15T05:13:23;63.94;58.63;67.19;;
73663;Laerm;61956;52.540;13.382;2023-05-15T05:15:52;63.92;58.72;67.46;;
73663;Laerm;61956;52.540;13.382;2023-05-15T05:18:24;63.88;59.09;68.35;;
73663;Laerm;61956;52.540;13.382;2023-05-15T05:20:58;63.93;58.78;68.01;;
73663;Laerm;61956;52.540;13.382;2023-05-15T05:23:28;63.89;59.10;67.53;;
73663;Laerm;61956;52.540;13.382;2023-05-15T05:25:58;63.87;58.79;67.23;;
73663;Laerm;61956;52.540;13.382;2023-05-15T05:28:28;63.86;59.08;67.73;;
73663;Laerm;61956;52.540;13.382;2023-05-15T05:30:57;63.88;59.08;67.39;;
73663;Laerm;61956;52.540;13.382;2023-05-15T05:33:30;63.81;59.02;67.08;;
73663;Laerm;61956;52.540;13.382;2023-05-15T05:36:02;63.90;59.20;67.34;;
73663;Laerm;61956;52.540;13.382;2023-05-15T05:38:32;63.93;58.61;67.17;;
73663;Laerm;61956;52.540;13.382;2023-05-15T05:41:01;63.88;58.24;67.15;;
73663;Laerm;61956;52.540;13.382;2023-05-15T05:43:31;63.84;59.23;67.04;;
73663;Laerm;61956;52.540;13.382;2023-05-15T05:46:01;63.91;58.89;67.27;;
73663;Laerm;61956;52.540;13.382;2023-05-15T05:48:33;64.00;59.45;67.39;;
73663;Laerm;61956;52.540;13.382;2023-05-15T05:51:02;63.90;58.80;67.98;;
73663;Laerm;61956;52.540;13.382;2023-05-15T05:53:32;63.78;59.44;67.52;;
73663;Laerm;61956;52.540;13.382;2023-05-15T05:56:01;63.82;59.11;67.35;;
73663;Laerm;61956;52.540;13.382;2023-05-15T05:58:30;63.79;59.06;67.74;;
73663;Laerm;61956;52.540;13.382;2023-05-15T06:01:00;63.85;59.06;73.54;;
73663;Laerm;61956;52.540;13.382;2023-05-15T06:06:03;61.77;58.01;65.75;;
73663;Laerm;61956;52.540;13.382;2023-05-15T06:08:32;61.97;57.89;66.31;;
73663;Laerm;61956;52.540;13.382;2023-05-15T06:11:02;61.88;57.93;66.45;;
73663;Laerm;61956;52.540;13.382;2023-05-15T06:13:31;62.24;58.19;66.62;;
73663;Laerm;61956;52.540;13.382;2023-05-15T06:16:01;61.79;57.96;66.09;;
73663;Laerm;61956;52.540;13.382;2023-05-15T06:18:32;61.93;57.98;66.18;;
73663;Laerm;61956;52.540;13.382;2023-05-15T06:21:02;61.99;58.12;65.89;;
73663;Laerm;61956;52.540;13.382;2023-05-15T06:23:31;62.01;58.07;66.00;;
73663;Laerm;61956;52.540;13.382;2023-05-15T06:26:00;61.70;57.49;66.15;;
73663;Laerm;61956;52.540;13.382;2023-05-15T06:28:30;61.94;57.98;65.73;;
73663;Laerm;61956;52.540;13.382;2023-05-15T06:30:59;62.02;58.15;65.83;;
73663;Laerm;61956;52.540;13.382;2023-05-15T06:33:28;61.93;57.92;66.02;;
73663;Laerm;61956;52.540;13.382;2023-05-15T06:36:01;61.82;57.88;65.47;;
73663;Laerm;61956;52.540;13.382;2023-05-15T06:40:59;63.24;59.44;67.74;;
73663;Laerm;61956;52.540;13.382;2023-05-15T06:43:28;63.23;59.72;70.29;;
73663;Laerm;61956;52.540;13.382;2023-05-15T06:45:58;63.39;59.08;72.71;;
73663;Laerm;61956;52.540;13.382;2023-05-15T06:48:28;63.51;59.76;67.30;;
73663;Laerm;61956;52.540;13.382;2023-05-15T06:51:00;63.64;58.87;74.93;;
73663;Laerm;61956;52.540;13.382;2023-05-15T06:53:29;63.67;59.29;69.88;;
73663;Laerm;61956;52.540;13.382;2023-05-15T06:55:58;62.77;60.00;70.26;;
73663;Laerm;61956;52.540;13.382;2023-05-15T06:58:27;63.24;59.88;72.89;;
73663;Laerm;61956;52.540;13.382;2023-05-15T07:00:57;63.44;59.66;66.23;;
73663;Laerm;61956;52.540;13.382;2023-05-15T07:03:26;63.52;59.44;78.44;;
73663;Laerm;61956;52.540;13.382;2023-05-15T07:06:01;63.57;59.66;69.78;;
73663;Laerm;61956;52.540;13.382;2023-05-15T07:08:30;63.61;59.47;66.93;;
73663;Laerm;61956;52.540;13.382;2023-05-15T07:10:59;63.51;58.51;66.73;;
73663;Laerm;61956;52.540;13.382;2023-05-15T07:13:29;63.66;59.97;66.44;;
73663;Laerm;61956;52.540;13.382;2023-05-15T07:15:58;63.80;59.93;66.92;;
73663;Laerm;61956;52.540;13.382;2023-05-15T07:20:56;63.59;60.02;66.41;;
73663;Laerm;61956;52.540;13.382;2023-05-15T07:23:28;63.56;59.96;66.74;;
73663;Laerm;61956;52.540;13.382;2023-05-15T07:25:57;63.58;59.86;66.71;;
73663;Laerm;61956;52.540;13.382;2023-05-15T07:28:27;63.66;60.00;66.84;;
73663;Laerm;61956;52.540;13.382;2023-05-15T07:30:59;63.85;60.17;66.66;;
73663;Laerm;61956;52.540;13.382;2023-05-15T07:33:31;63.78;60.08;66.91;;
73663;Laerm;61956;52.540;13.382;2023-05-15T07:36:01;64.30;60.50;67.65;;
73663;Laerm;61956;52.540;13.382;2023-05-15T07:38:33;63.95;60.06;68.07;;
73663;Laerm;61956;52.540;13.382;2023-05-15T07:41:02;63.96;60.21;66.81;;
73663;Laerm;61956;52.540;13.382;2023-05-15T07:43:31;64.05;59.85;67.71;;
73663;Laerm;61956;52.540;13.382;2023-05-15T07:46:01;63.85;59.88;66.63;;
73663;Laerm;61956;52.540;13.382;2023-05-15T07:48:30;63.94;59.92;66.91;;
73663;Laerm;61956;52.540;13.382;2023-05-15T07:51:00;63.94;59.40;67.71;;
73663;Laerm;61956;52.540;13.382;2023-05-15T07:53:32;63.83;59.73;68.87;;
73663;Laerm;61956;52.540;13.382;2023-05-15T07:56:01;63.86;59.98;67.07;;
73663;Laerm;61956;52.540;13.382;2023-05-15T07:58:30;64.07;60.05;66.81;;
73663;Laerm;61956;52.540;13.382;2023-05-15T08:01:03;64.02;60.10;66.47;;
73663;Laerm;61956;52.540;13.382;2023-05-15T08:03:32;63.94;60.00;66.71;;
73663;Laerm;61956;52.540;13.382;2023-05-15T08:06:01;63.94;59.12;66.80;;
73663;Laerm;61956;52.540;13.382;2023-05-15T08:08:35;63.91;59.76;66.67;;
73663;Laerm;61956;52.540;13.382;2023-05-15T08:11:04;63.90;60.07;66.67;;
73663;Laerm;61956;52.540;13.382;2023-05-15T08:13:33;63.91;60.06;66.45;;
73663;Laerm;61956;52.540;13.382;2023-05-15T08:16:03;63.99;60.60;68.58;;
73663;Laerm;61956;52.540;13.382;2023-05-15T08:18:32;63.91;59.83;66.94;;
73663;Laerm;61956;52.540;13.382;2023-05-15T08:21:02;64.01;60.40;69.84;;
73663;Laerm;61956;52.540;13.382;2023-05-15T08:23:33;63.72;59.84;67.58;;
73663;Laerm;61956;52.540;13.382;2023-05-15T08:26:03;63.36;59.53;66.54;;
73663;Laerm;61956;52.540;13.382;2023-05-15T08:28:32;63.43;58.86;67.33;;
73663;Laerm;61956;52.540;13.382;2023-05-15T08:31:01;63.92;60.54;66.70;;
73663;Laerm;61956;52.540;13.382;2023-05-15T08:33:31;63.88;59.94;66.47;;
73663;Laerm;61956;52.540;13.382;2023-05-15T08:36:00;63.92;60.63;66.81;;
73663;Laerm;61956;52.540;13.382;2023-05-15T08:38:29;63.83;60.14;66.60;;
73663;Laerm;61956;52.540;13.382;2023-05-15T08:41:11;63.93;60.31;72.36;;
73663;Laerm;61956;52.540;13.382;2023-05-15T08:43:47;63.97;59.65;67.06;;
73663;Laerm;61956;52.540;13.382;2023-05-15T08:46:18;63.88;59.95;67.31;;
73663;Laerm;61956;52.540;13.382;2023-05-15T08:48:48;63.89;59.38;66.74;;
73663;Laerm;61956;52.540;13.382;2023-05-15T08:51:19;63.94;58.93;66.57;;
73663;Laerm;61956;52.540;13.382;2023-05-15T08:53:49;63.97;59.63;66.73;;
73663;Laerm;61956;52.540;13.382;2023-05-15T08:56:22;63.86;60.12;66.76;;
73663;Laerm;61956;52.540;13.382;2023-05-15T08:58:52;64.02;60.25;66.44;;
73663;Laerm;61956;52.540;13.382;2023-05-15T09:01:22;63.89;60.03;66.88;;
73663;Laerm;61956;52.540;13.382;2023-05-15T09:03:52;63.86;59.91;66.87;;
73663;Laerm;61956;52.540;13.382;2023-05-15T09:06:23;63.69;59.64;66.76;;
73663;Laerm;61956;52.540;13.382;2023-05-15T09:08:55;63.95;59.75;67.49;;
73663;Laerm;61956;52.540;13.382;2023-05-15T09:11:30;63.80;59.64;67.65;;
73663;Laerm;61956;52.540;13.382;2023-05-15T09:14:00;63.89;60.16;66.44;;
73663;Laerm;61956;52.540;13.382;2023-05-15T09:16:29;63.74;59.29;66.58;;
73663;Laerm;61956;52.540;13.382;2023-05-15T09:18:59;63.86;60.10;66.42;;
73663;Laerm;61956;52.540;13.382;2023-05-15T09:21:30;63.96;59.61;66.72;;
73663;Laerm;61956;52.540;13.382;2023-05-15T09:24:18;63.85;59.29;66.55;;
73663;Laerm;61956;52.540;13.382;2023-05-15T09:27:04;63.81;60.50;70.21;;
73663;Laerm;61956;52.540;13.382;2023-05-15T09:29:36;63.66;59.16;66.77;;
73663;Laerm;61956;52.540;13.382;2023-05-15T09:32:07;63.87;58.96;67.07;;
73663;Laerm;61956;52.540;13.382;2023-05-15T09:34:39;68.83;60.67;79.97;;
73663;Laerm;61956;52.540;13.382;2023-05-15T09:37:12;69.67;61.06;74.81;;
73663;Laerm;61956;52.540;13.382;2023-05-15T09:39:55;69.39;64.93;77.87;;
73663;Laerm;61956;52.540;13.382;2023-05-15T09:42:37;67.34;60.93;76.47;;
73663;Laerm;61956;52.540;13.382;2023-05-15T09:45:16;68.20;64.40;73.16;;
73663;Laerm;61956;52.540;13.382;2023-05-15T09:47:46;66.08;61.13;70.57;;
73663;Laerm;61956;52.540;13.382;2023-05-15T09:50:20;66.93;60.06;70.89;;
73663;Laerm;61956;52.540;13.382;2023-05-15T09:52:51;66.60;60.27;76.35;;
73663;Laerm;61956;52.540;13.382;2023-05-15T09:55:24;63.83;59.92;70.38;;
73663;Laerm;61956;52.540;13.382;2023-05-15T09:58:11;63.71;59.09;66.65;;
73663;Laerm;61956;52.540;13.382;2023-05-15T10:00:43;63.90;60.69;67.03;;
73663;Laerm;61956;52.540;13.382;2023-05-15T10:03:20;63.77;60.39;66.38;;
73663;Laerm;61956;52.540;13.382;2023-05-15T10:05:49;63.83;59.88;68.38;;
73663;Laerm;61956;52.540;13.382;2023-05-15T10:08:26;63.89;60.29;66.96;;
73663;Laerm;61956;52.540;13.382;2023-05-15T10:10:59;63.87;60.45;68.04;;
73663;Laerm;61956;52.540;13.382;2023-05-15T10:13:34;63.99;60.19;66.82;;
73663;Laerm;61956;52.540;13.382;2023-05-15T10:16:05;63.86;60.61;66.49;;
73663;Laerm;61956;52.540;13.382;2023-05-15T10:18:37;63.80;59.44;69.67;;
73663;Laerm;61956;52.540;13.382;2023-05-15T10:21:13;63.90;60.08;69.82;;
73663;Laerm;61956;52.540;13.382;2023-05-15T10:23:46;63.76;59.62;66.99;;
73663;Laerm;61956;52.540;13.382;2023-05-15T10:26:27;63.82;59.56;66.60;;
73663;Laerm;61956;52.540;13.382;2023-05-15T10:29:01;63.85;58.80;70.70;;
73663;Laerm;61956;52.540;13.382;2023-05-15T10:31:33;63.84;60.52;66.55;;
73663;Laerm;61956;52.540;13.382;2023-05-15T10:34:04;64.01;60.33;66.66;;
73663;Laerm;61956;52.540;13.382;2023-05-15T10:36:37;63.98;59.41;66.69;;
73663;Laerm;61956;52.540;13.382;2023-05-15T10:39:07;63.94;59.08;66.74;;
73663;Laerm;61956;52.540;13.382;2023-05-15T10:41:38;63.89;58.62;66.78;;
73663;Laerm;61956;52.540;13.382;2023-05-15T10:44:10;63.86;59.26;66.66;;
73663;Laerm;61956;52.540;13.382;2023-05-15T10:46:43;63.89;59.48;66.42;;
73663;Laerm;61956;52.540;13.382;2023-05-15T10:49:12;64.00;60.30;66.33;;
73663;Laerm;61956;52.540;13.382;2023-05-15T10:51:41;63.90;60.28;67.19;;
73663;Laerm;61956;52.540;13.382;2023-05-15T10:54:11;63.81;60.23;66.54;;
73663;Laerm;61956;52.540;13.382;2023-05-15T10:56:41;63.92;60.38;66.97;;
73663;Laerm;61956;52.540;13.382;2023-05-15T10:59:13;63.94;59.86;66.48;;
73663;Laerm;61956;52.540;13.382;2023-05-15T11:01:42;64.06;60.48;69.25;;
73663;Laerm;61956;52.540;13.382;2023-05-15T11:04:15;63.84;60.18;66.31;;
73663;Laerm;61956;52.540;13.382;2023-05-15T11:06:47;63.83;60.39;66.86;;
73663;Laerm;61956;52.540;13.382;2023-05-15T11:09:33;63.87;60.24;66.56;;
73663;Laerm;61956;52.540;13.382;2023-05-15T11:12:04;63.78;60.02;66.35;;
73663;Laerm;61956;52.540;13.382;2023-05-15T11:14:42;63.76;60.25;66.81;;
73663;Laerm;61956;52.540;13.382;2023-05-15T11:17:12;63.81;59.99;66.29;;
73663;Laerm;61956;52.540;13.382;2023-05-15T11:19:56;63.70;59.60;66.46;;
73663;Laerm;61956;52.540;13.382;2023-05-15T11:22:29;63.65;59.90;66.70;;
73663;Laerm;61956;52.540;13.382;2023-05-15T11:25:01;63.74;60.40;66.25;;
73663;Laerm;61956;52.540;13.382;2023-05-15T11:27:38;63.80;60.38;66.28;;
73663;Laerm;61956;52.540;13.382;2023-05-15T18:10:10;63.49;59.23;66.54;;
73663;Laerm;61956;52.540;13.382;2023-05-15T18:12:39;63.51;60.04;65.96;;
73663;Laerm;61956;52.540;13.382;2023-05-15T18:15:15;63.70;59.68;66.58;;
73663;Laerm;61956;52.540;13.382;2023-05-15T18:17:45;63.76;59.57;66.44;;
73663;Laerm;61956;52.540;13.382;2023-05-15T18:20:15;63.90;59.03;66.69;;
73663;Laerm;61956;52.540;13.382;2023-05-15T18:22:45;63.80;59.45;66.67;;
73663;Laerm;61956;52.540;13.382;2023-05-15T18:25:20;63.90;59.45;66.85;;
73663;Laerm;61956;52.540;13.382;2023-05-15T18:27:50;63.94;59.66;66.82;;
73663;Laerm;61956;52.540;13.382;2023-05-15T18:30:20;64.46;60.78;66.87;;
73663;Laerm;61956;52.540;13.382;2023-05-15T18:32:50;63.90;59.23;67.19;;
73663;Laerm;61956;52.540;13.382;2023-05-15T18:35:20;63.86;59.81;67.58;;
73663;Laerm;61956;52.540;13.382;2023-05-15T18:37:50;63.86;58.90;67.16;;
73663;Laerm;61956;52.540;13.382;2023-05-15T18:40:23;63.89;59.48;66.80;;
73663;Laerm;61956;52.540;13.382;2023-05-15T18:42:54;63.87;59.37;69.22;;
73663;Laerm;61956;52.540;13.382;2023-05-15T18:45:27;63.97;59.27;67.25;;
73663;Laerm;61956;52.540;13.382;2023-05-15T18:47:56;64.03;59.44;67.12;;
73663;Laerm;61956;52.540;13.382;2023-05-15T18:50:25;63.83;59.41;66.72;;
73663;Laerm;61956;52.540;13.382;2023-05-15T18:52:55;63.83;59.03;67.37;;
73663;Laerm;61956;52.540;13.382;2023-05-15T18:55:26;63.88;58.96;66.60;;
73663;Laerm;61956;52.540;13.382;2023-05-15T18:57:56;63.84;59.32;66.92;;
73663;Laerm;61956;52.540;13.382;2023-05-15T19:02:54;63.85;59.15;66.56;;
73663;Laerm;61956;52.540;13.382;2023-05-15T19:05:23;63.85;59.35;75.63;;
73663;Laerm;61956;52.540;13.382;2023-05-15T19:07:52;63.87;59.61;66.62;;
73663;Laerm;61956;52.540;13.382;2023-05-15T19:10:22;63.87;59.43;66.73;;
73663;Laerm;61956;52.540;13.382;2023-05-15T19:12:57;63.79;59.04;66.67;;
73663;Laerm;61956;52.540;13.382;2023-05-15T19:15:26;63.84;58.89;66.74;;
73663;Laerm;61956;52.540;13.382;2023-05-15T19:17:55;63.89;59.30;71.52;;
73663;Laerm;61956;52.540;13.382;2023-05-15T19:20:25;63.86;59.23;72.88;;
73663;Laerm;61956;52.540;13.382;2023-05-15T19:22:54;63.80;59.05;67.02;;
73663;Laerm;61956;52.540;13.382;2023-05-15T19:25:24;63.80;58.21;66.81;;
73663;Laerm;61956;52.540;13.382;2023-05-15T19:27:55;63.81;59.31;67.04;;
73663;Laerm;61956;52.540;13.382;2023-05-15T19:30:25;63.83;58.91;66.57;;
73663;Laerm;61956;52.540;13.382;2023-05-15T19:32:54;63.81;59.37;66.46;;
73663;Laerm;61956;52.540;13.382;2023-05-15T19:35:23;63.80;58.34;66.86;;
73663;Laerm;61956;52.540;13.382;2023-05-15T19:37:52;63.72;59.00;66.76;;
73663;Laerm;61956;52.540;13.382;2023-05-15T19:40:22;63.76;58.54;66.85;;
73663;Laerm;61956;52.540;13.382;2023-05-15T19:42:51;63.77;58.75;66.75;;
73663;Laerm;61956;52.540;13.382;2023-05-15T19:45:23;63.75;59.62;67.19;;
73663;Laerm;61956;52.540;13.382;2023-05-15T19:47:52;63.73;58.94;66.70;;
73663;Laerm;61956;52.540;13.382;2023-05-15T19:50:21;63.67;58.72;66.67;;
73663;Laerm;61956;52.540;13.382;2023-05-15T19:52:51;63.64;58.49;66.44;;
73663;Laerm;61956;52.540;13.382;2023-05-15T19:55:20;63.64;59.35;66.81;;
73663;Laerm;61956;52.540;13.382;2023-05-15T19:57:54;63.63;59.13;67.11;;
73663;Laerm;61956;52.540;13.382;2023-05-15T20:00:26;63.59;58.75;67.33;;
73663;Laerm;61956;52.540;13.382;2023-05-15T20:02:56;63.67;58.84;66.94;;
73663;Laerm;61956;52.540;13.382;2023-05-15T20:05:25;63.60;58.30;67.12;;
73663;Laerm;61956;52.540;13.382;2023-05-15T20:07:54;63.61;58.57;66.85;;
73663;Laerm;61956;52.540;13.382;2023-05-15T20:10:24;63.51;59.09;66.77;;
73663;Laerm;61956;52.540;13.382;2023-05-15T20:12:53;63.53;58.56;66.56;;
73663;Laerm;61956;52.540;13.382;2023-05-15T20:15:25;63.61;59.23;66.57;;
73663;Laerm;61956;52.540;13.382;2023-05-15T20:17:56;63.55;58.55;66.86;;
73663;Laerm;61956;52.540;13.382;2023-05-15T20:20:28;63.55;59.09;66.58;;
73663;Laerm;61956;52.540;13.382;2023-05-15T20:22:57;63.50;58.52;66.57;;
73663;Laerm;61956;52.540;13.382;2023-05-15T20:25:27;63.60;58.95;67.15;;
73663;Laerm;61956;52.540;13.382;2023-05-15T20:27:57;63.55;58.93;66.96;;
73663;Laerm;61956;52.540;13.382;2023-05-15T20:30:29;63.52;58.78;66.58;;
73663;Laerm;61956;52.540;13.382;2023-05-15T20:32:58;63.51;58.65;67.28;;
73663;Laerm;61956;52.540;13.382;2023-05-15T20:35:28;63.53;58.99;66.55;;
73663;Laerm;61956;52.540;13.382;2023-05-15T20:37:57;63.54;58.47;66.74;;
73663;Laerm;61956;52.540;13.382;2023-05-15T20:40:29;63.51;59.02;66.59;;
73663;Laerm;61956;52.540;13.382;2023-05-15T20:43:00;63.50;58.83;67.18;;
73663;Laerm;61956;52.540;13.382;2023-05-15T20:45:32;63.53;58.24;66.68;;
73663;Laerm;61956;52.540;13.382;2023-05-15T20:48:01;63.52;58.72;66.44;;
73663;Laerm;61956;52.540;13.382;2023-05-15T20:50:31;63.50;58.93;66.29;;
73663;Laerm;61956;52.540;13.382;2023-05-15T20:53:01;63.55;58.88;66.73;;